Hadsund, Denmark
Current Conditions -  °F | °C
As of 7:50 PM on Monday 20 Oct 2014 (Local Time) from EKYT Reporting Station
Few Clouds Few Clouds  
Wind Chill: 52°   Ceiling: Unl
Heat Index: 52°   Visibility: 6mi
Dew Point: 46°   Wind: 12mph
Humidity: 82%   Direction: 260°W
Pressure: 29.65"   Gusts: NA
Location:  56.71°N, 10.12°E
Report Text: EKYT 201750Z 26010KT 9999 FEW025 11/08 Q1004
Loading
Personal Weather Stations






























Interactive Weather Map
Tropical Storm Tracking
New forecast layout! Learn more

10-Day Weather Forecast

Advertisements
Track Severe Weather on mobile